Meteo Giornale » Osservazioni meteo Stati Uniti (USA) » San Diego Miramar
ore: 11:55 - Osservazioni Meteo San Diego Miramar
Lat. 32° 51' N Lon. 107° 7' W Alt. 145 metri s.l.m.
28 °C
Sereno
Temp. 24 Ore
16 °C
28 °C
Nord
9.3 Km/h
Dew point 16 °C
Umidità 48 %
Visibilità 10 Km
Il sole sorge alle ore 05:43
Il sole tramonta alle ore 18:33
| Data e Ora | Cielo e Fenomeni | T °C | DP °C | Um. % | Pres. hPa | Vis. km | Vento km/h | |
|---|---|---|---|---|---|---|---|---|
| Oggi h: 11:55 | Sereno | 28 | 16 | 48 | 1015 | 10 | N 9.3 | |
| Oggi h: 10:55 | Sereno | 26 | 16 | 54 | 1016 | 11 | N 0 | |
| Oggi h: 09:55 | Sereno | 24 | 17 | 64 | 1015 | 10 | N 7.4 | |
| Oggi h: 08:55 | Sereno | 22 | 17 | 73 | 1015 | 10 | NO 7.4 | |
| Oggi h: 07:55 | Sereno | 21 | 17 | 77 | 1015 | 10 | N 0 | |
| Oggi h: 06:55 | Sereno | 17 | 17 | 100 | 1015 | 13 | N 5.5 | |
| Oggi h: 06:29 | Nuvoloso | 17 | 16 | 93 | 1014 | 11 | NE 7.4 | |
| Oggi h: 06:06 | Molto Nuvoloso | 17 | 16 | 93 | 1014 | 13 | E 7.4 | |
| Oggi h: 05:55 | Nuvoloso | 17 | 16 | 93 | 1014 | 13 | N 5.5 | |
| Oggi h: 05:46 | Poco Nuvoloso | 17 | 16 | 93 | 1014 | 13 | N 5.5 | |
| Oggi h: 05:19 | Molto Nuvoloso | 17 | 16 | 93 | 1014 | 13 | E/NE 11.1 | |
| Oggi h: 04:55 | Nuvoloso | 17 | 16 | 93 | 1014 | 10 | NE 11.1 | |
| Oggi h: 04:17 | Nuvoloso | 16 | 15 | 93 | 1014 | 10 | N 0 | |
| Oggi h: 03:55 | Sereno | 16 | 15 | 93 | 1014 | 13 | N 5.5 | |
| Oggi h: 02:55 | Sereno | 17 | 16 | 93 | 1014 | 10 | E/NE 7.4 | |
| Oggi h: 02:17 | Nuvoloso | 19 | 17 | 88 | 1014 | 10 | O/NO 9.3 | |
| Oggi h: 01:55 | Molto Nuvoloso | 18 | 17 | 93 | 1014 | 10 | N 0 | |
| Oggi h: 01:41 | Coperto | 18 | 17 | 93 | 1014 | 10 | E/NE 7.4 | |
| Oggi h: 00:55 | Coperto | 18 | 16 | 88 | 1014 | 10 | N 0 | |
| Oggi h: 00:35 | Nuvoloso | 16 | 15 | 93 | 1014 | 10 | N 0 | |
| Ieri h: 23:55 | Sereno | 17 | 16 | 93 | 1014 | 13 | N 0 | |
| Ieri h: 22:55 | Sereno | 18 | 17 | 93 | 1014 | 10 | N 0 | |
| Ieri h: 21:55 | Sereno | 20 | 17 | 82 | 1014 | 10 | O/NO 9.3 | |
| Ieri h: 20:55 | Sereno | 20 | 17 | 82 | 1014 | 10 | O 7.4 | |
| Ieri h: 19:55 | Sereno | 21 | 18 | 82 | 1013 | 10 | O 11.1 | |
| Ieri h: 18:55 | Sereno | 22 | 17 | 73 | 1012 | 10 | O/SO 13 | |
| Ieri h: 17:55 | Sereno | 24 | 17 | 64 | 1012 | 10 | O 14.8 | |
| Ieri h: 16:55 | Sereno | 26 | 17 | 57 | 1012 | 10 | O/NO 11.1 | |
| Ieri h: 15:55 | Sereno | 26 | 18 | 61 | 1013 | 10 | O/SO 14.8 | |
| Ieri h: 14:55 | Sereno | 26 | 17 | 57 | 1013 | 10 | O 16.7 | |
| Ieri h: 13:55 | Sereno | 26 | 16 | 54 | 1014 | 10 | O 16.7 | |
| Ieri h: 12:55 | Sereno | 27 | 17 | 54 | 1014 | 10 | O/SO 14.8 | |



